Ashley, Ohio
Current Conditions -  °F | °C
As of 6:56 PM on Monday 20 Oct 2014 (Local Time) from KDLZ Reporting Station
Overcast Overcast  
Wind Chill: 10°   Ceiling: 2500
Heat Index: 10°   Visibility: 10mi
Dew Point:   Wind: 0mph
Humidity: 94%   Direction: NA
Pressure: 29.87"   Gusts: NA
Location:  40.41°N, 82.96°W
Report Text: KDLZ 202256Z AUTO 00000KT 10SM OVC025 10/09 A2987 RMK AO2 P0001 LTG DSNT NE THRU S
Loading
Personal Weather Stations






























Interactive Weather Map
Tropical Storm Tracking
New forecast layout! Learn more

10-Day Weather Forecast

Advertisements
Track Severe Weather on mobile